createdAt,value
2022-12-16T00:00:56.475Z,0.88
2022-12-16T00:03:28.033Z,0.81
2022-12-16T00:05:59.992Z,0.69
2022-12-16T00:08:29.360Z,0.81
2022-12-16T00:11:05.076Z,0.69
2022-12-16T00:13:39.727Z,0.69
2022-12-16T00:16:14.756Z,0.94
2022-12-16T00:18:51.779Z,0.88
2022-12-16T00:21:29.828Z,0.69
2022-12-16T00:24:04.232Z,0.56
2022-12-16T00:26:34.750Z,0.56
2022-12-16T00:31:45.236Z,0.75
2022-12-16T03:10:05.190Z,0.75
2022-12-16T15:31:06.814Z,1.56
2022-12-16T19:33:45.720Z,0.19
2022-12-16T19:37:19.143Z,0.19
2022-12-16T22:33:59.490Z,0.06
2022-12-16T22:36:47.836Z,-0.06
2022-12-16T22:39:41.363Z,0.00
2022-12-16T22:42:34.170Z,-0.13
2022-12-16T22:48:20.323Z,-0.31
2022-12-16T22:51:07.394Z,-0.31
2022-12-16T22:53:53.626Z,-0.44
2022-12-16T22:56:40.248Z,-0.44
2022-12-16T22:59:26.812Z,-0.50
2022-12-16T23:02:14.764Z,-0.44
2022-12-16T23:05:04.011Z,-0.69
2022-12-16T23:07:54.181Z,-0.94
2022-12-16T23:10:43.776Z,-0.81
2022-12-16T23:13:33.367Z,-0.81
2022-12-16T23:16:20.171Z,-0.88
2022-12-16T23:19:06.537Z,-0.81
2022-12-16T23:21:55.901Z,-0.75
2022-12-16T23:24:44.151Z,-0.81
2022-12-16T23:27:29.994Z,-0.94
2022-12-16T23:30:16.281Z,-0.88
2022-12-16T23:33:02.809Z,-1.06
2022-12-16T23:38:26.792Z,-1.13
2022-12-16T23:41:17.405Z,-1.13
2022-12-16T23:44:04.163Z,-1.00
2022-12-16T23:49:10.042Z,-1.00
2022-12-16T23:52:10.721Z,-1.00
2022-12-16T23:55:01.488Z,-1.19
2022-12-16T23:57:47.580Z,-1.13
